Time;durP1;ratioP1;P1;durP2;ratioP2;P2;SDS_P1;SDS_P2;PMS_P1;PMS_P2;Temp;Humidity;BMP_temperature;BMP_pressure;BME280_temperature;BME280_humidity;BME280_pressure;Samples;Min_cycle;Max_cycle;Signal;HPM_P1;HPM_P2
2022/02/16 00:00:08;;;;;;;2.35;2.15;;;;;15.00;100077.00;;;;5086054;28;20256;-79
2022/02/16 00:02:35;;;;;;;2.30;2.10;;;;;15.10;100070.00;;;;5071151;28;20685;-79
2022/02/16 00:05:02;;;;;;;2.20;2.10;;;;;15.10;100080.00;;;;5085602;28;20199;-79
2022/02/16 00:07:30;;;;;;;2.50;2.30;;;;;15.10;100073.00;;;;5087624;28;20217;-79
2022/02/16 00:09:57;;;;;;;2.55;2.10;;;;;15.10;100076.00;;;;5079625;28;20194;-79
2022/02/16 00:12:26;;;;;;;2.08;1.88;;;;;15.00;100077.00;;;;5074900;28;20219;-79
2022/02/16 00:14:53;;;;;;;2.75;2.13;;;;;15.10;100081.00;;;;5074905;28;20198;-79
2022/02/16 00:17:20;;;;;;;1.88;1.77;;;;;15.10;100081.00;;;;5077160;28;20230;-79
2022/02/16 00:19:47;;;;;;;1.88;1.63;;;;;15.10;100070.00;;;;5087268;28;21017;-79
2022/02/16 00:22:14;;;;;;;1.80;1.50;;;;;15.10;100070.00;;;;5073886;28;20194;-79
2022/02/16 00:24:42;;;;;;;2.63;1.83;;;;;15.10;100062.00;;;;5087476;28;20206;-80
2022/02/16 00:27:09;;;;;;;2.92;1.50;;;;;15.10;100051.00;;;;5080910;28;20206;-79
2022/02/16 00:29:37;;;;;;;1.80;1.40;;;;;15.10;100050.00;;;;5073477;28;20211;-79
2022/02/16 00:32:05;;;;;;;1.90;1.70;;;;;15.10;100051.00;;;;5070471;28;20218;-79
2022/02/16 00:34:33;;;;;;;1.70;1.60;;;;;15.10;100037.00;;;;5069727;28;20583;-79
2022/02/16 00:37:00;;;;;;;1.83;1.73;;;;;15.20;100027.00;;;;5070893;28;20199;-79
2022/02/16 00:39:27;;;;;;;2.28;1.95;;;;;15.10;100020.00;;;;5075802;28;20211;-79
2022/02/16 00:41:54;;;;;;;2.33;2.00;;;;;15.10;100020.00;;;;5076708;28;20550;-79
2022/02/16 00:44:22;;;;;;;1.85;1.75;;;;;15.10;100017.00;;;;5081240;28;20194;-79
2022/02/16 00:46:51;;;;;;;2.08;1.85;;;;;15.10;100015.00;;;;5076637;28;20195;-79
2022/02/16 00:49:18;;;;;;;3.17;1.95;;;;;15.10;100010.00;;;;5071575;28;20572;-79
2022/02/16 00:51:45;;;;;;;2.25;1.80;;;;;15.20;100011.00;;;;5076767;28;20222;-79
2022/02/16 00:54:13;;;;;;;2.90;1.70;;;;;15.10;100004.00;;;;5078760;28;20205;-79
2022/02/16 00:56:41;;;;;;;2.65;2.00;;;;;15.10;100007.00;;;;5076194;28;20207;-79
2022/02/16 00:59:09;;;;;;;1.67;1.58;;;;;15.10;100005.00;;;;5069606;28;20273;-79
2022/02/16 01:01:36;;;;;;;1.67;1.58;;;;;15.10;99998.00;;;;5068678;28;20225;-78
2022/02/16 01:04:05;;;;;;;1.65;1.55;;;;;15.10;99994.00;;;;5068233;28;20191;-79
2022/02/16 01:06:32;;;;;;;2.05;1.60;;;;;15.10;99984.00;;;;5074411;28;20793;-78
2022/02/16 01:09:02;;;;;;;1.73;1.50;;;;;15.10;99983.00;;;;5087212;28;20198;-78
2022/02/16 01:11:29;;;;;;;2.03;1.40;;;;;15.10;99976.00;;;;5071643;28;20218;-79
2022/02/16 01:13:56;;;;;;;1.65;1.48;;;;;15.10;99978.00;;;;5072155;28;20190;-79
2022/02/16 01:16:23;;;;;;;2.92;1.55;;;;;15.10;99968.00;;;;5068406;28;20292;-79
2022/02/16 01:18:51;;;;;;;1.20;1.10;;;;;15.10;99966.00;;;;5078110;28;20217;-79
2022/02/16 01:21:20;;;;;;;1.50;1.23;;;;;15.10;99965.00;;;;5069908;28;20214;-79
2022/02/16 01:23:47;;;;;;;1.65;1.40;;;;;15.10;99969.00;;;;5070672;28;20199;-79
2022/02/16 01:26:17;;;;;;;2.05;1.75;;;;;15.10;99959.00;;;;5069462;28;20190;-79
2022/02/16 01:28:44;;;;;;;1.92;1.65;;;;;15.10;99964.00;;;;5083782;28;20198;-79
2022/02/16 01:31:12;;;;;;;1.88;1.70;;;;;15.10;99964.00;;;;5075310;28;20194;-80
2022/02/16 01:33:39;;;;;;;2.42;1.98;;;;;15.10;99957.00;;;;5071315;28;20199;-79
2022/02/16 01:36:07;;;;;;;3.00;2.00;;;;;15.10;99951.00;;;;5069803;28;20203;-79
2022/02/16 01:38:36;;;;;;;2.40;2.00;;;;;15.10;99955.00;;;;5077048;28;20222;-79
2022/02/16 01:41:03;;;;;;;2.15;1.95;;;;;15.10;99938.00;;;;5075736;28;20253;-79
2022/02/16 01:43:31;;;;;;;2.08;1.88;;;;;15.10;99932.00;;;;5069532;28;20581;-79
2022/02/16 01:45:58;;;;;;;2.47;2.13;;;;;15.10;99925.00;;;;5076287;28;20705;-78
2022/02/16 01:48:26;;;;;;;2.28;1.80;;;;;15.10;99921.00;;;;5088942;28;21110;-79
2022/02/16 01:50:54;;;;;;;2.13;1.65;;;;;15.10;99910.00;;;;5075828;28;20191;-79
2022/02/16 01:53:21;;;;;;;2.63;1.38;;;;;15.10;99915.00;;;;5076964;28;20635;-78
2022/02/16 01:55:50;;;;;;;1.77;1.63;;;;;15.10;99912.00;;;;5074159;28;20272;-79
2022/02/16 01:58:18;;;;;;;1.95;1.75;;;;;15.10;99904.00;;;;5077891;28;20205;-78
2022/02/16 02:00:45;;;;;;;1.67;1.40;;;;;15.20;99897.00;;;;5072176;28;20194;-79
2022/02/16 02:03:13;;;;;;;2.63;1.85;;;;;15.10;99893.00;;;;5075009;28;20669;-78
2022/02/16 02:05:41;;;;;;;2.30;1.67;;;;;15.10;99881.00;;;;5070182;28;20198;-78
2022/02/16 02:08:10;;;;;;;1.98;1.77;;;;;15.10;99877.00;;;;5068981;28;20288;-79
2022/02/16 02:10:37;;;;;;;1.95;1.27;;;;;15.20;99875.00;;;;5071902;28;20193;-79
2022/02/16 02:13:06;;;;;;;1.88;1.40;;;;;15.10;99868.00;;;;5068254;28;20268;-79
2022/02/16 02:15:33;;;;;;;2.78;2.00;;;;;15.20;99864.00;;;;5074135;28;20402;-79
2022/02/16 02:18:01;;;;;;;2.78;1.75;;;;;15.10;99856.00;;;;5076131;28;20259;-79
2022/02/16 02:20:30;;;;;;;1.80;1.65;;;;;15.10;99853.00;;;;5072514;28;20197;-79
2022/02/16 02:22:58;;;;;;;1.90;1.67;;;;;15.20;99847.00;;;;5087564;28;20206;-79
2022/02/16 02:25:27;;;;;;;2.20;1.80;;;;;15.20;99851.00;;;;5074934;28;20296;-79
2022/02/16 02:27:54;;;;;;;2.45;2.25;;;;;15.20;99842.00;;;;5068425;28;20222;-79
2022/02/16 02:30:21;;;;;;;2.78;2.38;;;;;15.10;99840.00;;;;5076230;28;20726;-80
2022/02/16 02:32:50;;;;;;;3.05;2.75;;;;;15.10;99837.00;;;;5083371;28;20222;-79
2022/02/16 02:35:17;;;;;;;3.83;3.40;;;;;15.20;99829.00;;;;5079466;28;20198;-79
2022/02/16 02:37:46;;;;;;;5.30;3.20;;;;;15.20;99817.00;;;;5071003;28;20201;-79
2022/02/16 02:40:13;;;;;;;5.60;3.70;;;;;15.20;99827.00;;;;5079839;28;20194;-80
2022/02/16 02:42:42;;;;;;;4.30;3.90;;;;;15.20;99824.00;;;;5074225;28;20683;-80
2022/02/16 02:45:11;;;;;;;4.97;4.30;;;;;15.10;99812.00;;;;5068584;28;20206;-80
2022/02/16 02:47:38;;;;;;;4.68;4.05;;;;;15.10;99804.00;;;;5074995;28;20191;-79
2022/02/16 02:50:07;;;;;;;3.90;3.60;;;;;15.10;99802.00;;;;5068812;28;20194;-79
2022/02/16 02:52:36;;;;;;;5.03;3.30;;;;;15.20;99801.00;;;;5069126;28;20219;-79
2022/02/16 02:55:05;;;;;;;4.70;3.42;;;;;15.10;99796.00;;;;5073636;28;20195;-79
2022/02/16 02:57:32;;;;;;;4.55;3.13;;;;;15.10;99802.00;;;;5073743;28;20199;-79
2022/02/16 03:00:00;;;;;;;4.93;3.97;;;;;15.10;99795.00;;;;5079188;28;20313;-80
2022/02/16 03:02:27;;;;;;;4.20;3.85;;;;;15.10;99787.00;;;;5072308;28;20211;-81
2022/02/16 03:04:54;;;;;;;4.10;3.67;;;;;15.10;99775.00;;;;5070562;28;20294;-80
2022/02/16 03:07:21;;;;;;;3.53;3.13;;;;;15.10;99780.00;;;;5081616;28;20198;-80
2022/02/16 03:09:50;;;;;;;5.82;4.05;;;;;15.10;99778.00;;;;5083300;28;20187;-80
2022/02/16 03:12:18;;;;;;;5.50;3.92;;;;;15.10;99769.00;;;;5084569;28;20607;-80
2022/02/16 03:14:45;;;;;;;4.18;3.55;;;;;15.10;99768.00;;;;5087197;28;20251;-80
2022/02/16 03:17:13;;;;;;;4.78;3.85;;;;;15.10;99756.00;;;;5074923;28;20249;-80
2022/02/16 03:19:40;;;;;;;7.82;4.13;;;;;15.10;99752.00;;;;5081308;28;20187;-80
2022/02/16 03:22:08;;;;;;;4.50;3.97;;;;;15.20;99751.00;;;;5071573;28;20736;-80
2022/02/16 03:24:35;;;;;;;4.47;3.65;;;;;15.20;99746.00;;;;5069596;28;20190;-80
2022/02/16 03:27:02;;;;;;;3.90;3.20;;;;;15.20;99732.00;;;;5077900;28;20209;-80
2022/02/16 03:29:31;;;;;;;4.05;3.40;;;;;15.10;99730.00;;;;5068262;28;20199;-80
2022/02/16 03:31:58;;;;;;;4.07;3.67;;;;;15.20;99730.00;;;;5067504;28;20206;-80
2022/02/16 03:34:26;;;;;;;4.47;4.07;;;;;15.20;99729.00;;;;5081598;28;20617;-80
2022/02/16 03:36:53;;;;;;;3.90;3.60;;;;;15.20;99723.00;;;;5076293;28;20211;-80
2022/02/16 03:39:20;;;;;;;4.57;3.85;;;;;15.20;99718.00;;;;5068066;28;20655;-80
2022/02/16 03:41:47;;;;;;;3.75;3.45;;;;;15.20;99722.00;;;;5068465;28;20210;-80
2022/02/16 03:44:15;;;;;;;4.03;3.63;;;;;15.20;99716.00;;;;5068921;28;20214;-79
2022/02/16 03:46:45;;;;;;;4.25;3.78;;;;;15.20;99703.00;;;;5069317;28;20191;-80
2022/02/16 03:49:13;;;;;;;3.85;3.55;;;;;15.20;99697.00;;;;5081033;28;20226;-80
2022/02/16 03:51:40;;;;;;;3.95;3.55;;;;;15.20;99695.00;;;;5067843;28;20588;-79
2022/02/16 03:54:07;;;;;;;3.97;3.20;;;;;15.20;99695.00;;;;5067618;28;20713;-80
2022/02/16 03:56:35;;;;;;;3.63;3.17;;;;;15.20;99689.00;;;;5069383;28;20188;-80
2022/02/16 03:59:02;;;;;;;3.72;3.17;;;;;15.20;99688.00;;;;5075274;28;20187;-80
2022/02/16 04:01:30;;;;;;;3.20;2.90;;;;;15.10;99685.00;;;;5085284;28;20206;-80
2022/02/16 04:03:59;;;;;;;3.45;3.15;;;;;15.10;99672.00;;;;5079173;28;20224;-79
2022/02/16 04:06:26;;;;;;;3.30;3.00;;;;;15.10;99664.00;;;;5084573;28;20222;-80
2022/02/16 04:08:53;;;;;;;2.47;2.20;;;;;15.10;99654.00;;;;5071535;28;20535;-80
2022/02/16 04:11:26;;;;;;;2.67;2.40;;;;;15.10;99647.00;;;;5077667;28;20198;-80
2022/02/16 04:13:53;;;;;;;2.20;2.05;;;;;15.10;99649.00;;;;5082647;28;20230;-80
2022/02/16 04:16:21;;;;;;;2.40;2.20;;;;;15.10;99633.00;;;;5077336;28;20258;-80
2022/02/16 04:18:48;;;;;;;2.20;1.92;;;;;15.10;99633.00;;;;5072484;28;20241;-80
2022/02/16 04:21:17;;;;;;;2.40;2.20;;;;;15.10;99623.00;;;;5071229;28;20206;-80
2022/02/16 04:23:45;;;;;;;2.42;1.90;;;;;15.10;99618.00;;;;5074875;28;20199;-80
2022/02/16 04:26:12;;;;;;;4.32;2.50;;;;;15.10;99615.00;;;;5071624;28;20194;-80
2022/02/16 04:28:39;;;;;;;3.05;2.20;;;;;15.10;99603.00;;;;5071507;28;20204;-80
2022/02/16 04:31:07;;;;;;;2.15;1.95;;;;;15.10;99586.00;;;;5071156;28;20199;-80
2022/02/16 04:33:34;;;;;;;2.28;1.90;;;;;15.10;99585.00;;;;5076871;28;20218;-80
2022/02/16 04:36:01;;;;;;;2.60;2.40;;;;;15.10;99582.00;;;;5077645;28;20203;-80
2022/02/16 04:38:30;;;;;;;2.30;2.10;;;;;15.10;99585.00;;;;5070667;28;20227;-80
2022/02/16 04:40:58;;;;;;;2.70;2.13;;;;;15.10;99575.00;;;;5087010;28;20285;-79
2022/02/16 04:43:25;;;;;;;2.20;2.00;;;;;15.10;99571.00;;;;5077973;28;20226;-80
2022/02/16 04:45:52;;;;;;;2.70;2.40;;;;;15.10;99563.00;;;;5070935;28;20202;-80
2022/02/16 04:48:21;;;;;;;2.55;2.05;;;;;15.10;99556.00;;;;5085292;28;20186;-80
2022/02/16 04:50:48;;;;;;;1.98;1.77;;;;;15.10;99530.00;;;;5089237;28;20209;-80
2022/02/16 04:53:15;;;;;;;1.90;1.80;;;;;15.10;99523.00;;;;5075929;28;20233;-80
2022/02/16 04:55:44;;;;;;;1.67;1.58;;;;;15.10;99509.00;;;;5069641;28;20195;-80
2022/02/16 04:58:11;;;;;;;1.50;1.38;;;;;15.00;99502.00;;;;5069770;28;20194;-80
2022/02/16 05:00:38;;;;;;;1.60;1.50;;;;;15.00;99513.00;;;;5070184;28;20198;-80
2022/02/16 05:03:05;;;;;;;1.42;1.33;;;;;15.00;99509.00;;;;5084879;28;20201;-80
2022/02/16 05:05:33;;;;;;;2.17;1.33;;;;;15.10;99498.00;;;;5076381;28;20684;-79
2022/02/16 05:08:00;;;;;;;1.25;1.15;;;;;15.10;99493.00;;;;5074387;28;20203;-79
2022/02/16 05:10:27;;;;;;;1.65;1.40;;;;;15.10;99492.00;;;;5084210;28;20202;-79
2022/02/16 05:12:56;;;;;;;1.35;1.25;;;;;15.10;99504.00;;;;5089827;28;20233;-80
2022/02/16 05:15:23;;;;;;;1.30;1.20;;;;;15.10;99489.00;;;;5079649;28;20194;-80
2022/02/16 05:17:50;;;;;;;1.27;0.93;;;;;15.10;99482.00;;;;5082517;28;20569;-80
2022/02/16 05:20:17;;;;;;;1.02;0.93;;;;;15.10;99474.00;;;;5080876;28;20203;-80
2022/02/16 05:22:45;;;;;;;0.70;0.70;;;;;15.10;99467.00;;;;5069607;28;20199;-80
2022/02/16 05:25:12;;;;;;;0.70;0.70;;;;;15.10;99453.00;;;;5083373;28;20186;-80
2022/02/16 05:27:39;;;;;;;1.10;0.93;;;;;15.10;99459.00;;;;5071469;28;20225;-81
2022/02/16 05:30:09;;;;;;;0.98;0.68;;;;;15.10;99444.00;;;;5069875;28;20202;-80
2022/02/16 05:32:37;;;;;;;0.65;0.63;;;;;15.10;99449.00;;;;5069021;28;20187;-79
2022/02/16 05:35:05;;;;;;;0.70;0.70;;;;;15.10;99443.00;;;;5069905;28;20244;-80
2022/02/16 05:37:32;;;;;;;0.80;0.60;;;;;15.10;99441.00;;;;5072877;28;20207;-79
2022/02/16 05:39:59;;;;;;;0.90;0.68;;;;;15.10;99434.00;;;;5069166;28;20215;-80
2022/02/16 05:42:27;;;;;;;0.88;0.73;;;;;15.10;99427.00;;;;5085479;28;20202;-79
2022/02/16 05:44:54;;;;;;;1.20;0.55;;;;;15.10;99413.00;;;;5073856;28;20214;-79
2022/02/16 05:47:22;;;;;;;1.30;0.88;;;;;15.10;99409.00;;;;5088073;28;20204;-81
2022/02/16 05:49:50;;;;;;;1.00;0.90;;;;;15.10;99402.00;;;;5109766;28;20204;-80
2022/02/16 05:52:17;;;;;;;0.95;0.70;;;;;15.10;99398.00;;;;5085373;28;20206;-80
2022/02/16 05:54:44;;;;;;;0.75;0.70;;;;;15.10;99400.00;;;;5083813;28;20276;-80
2022/02/16 05:57:12;;;;;;;0.70;0.70;;;;;15.20;99383.00;;;;5068758;28;20206;-80
2022/02/16 05:59:40;;;;;;;0.70;0.70;;;;;15.20;99382.00;;;;5077601;28;20663;-79
2022/02/16 06:02:07;;;;;;;0.95;0.82;;;;;15.20;99370.00;;;;5076191;28;20305;-79
2022/02/16 06:04:36;;;;;;;0.70;0.70;;;;;15.20;99375.00;;;;5068799;28;20561;-79
2022/02/16 06:07:03;;;;;;;0.90;0.80;;;;;15.20;99365.00;;;;5078046;28;20197;-79
2022/02/16 06:09:31;;;;;;;1.10;1.00;;;;;15.20;99356.00;;;;5087824;28;20198;-80
2022/02/16 06:11:58;;;;;;;1.10;0.90;;;;;15.20;99359.00;;;;5078632;28;20201;-79
2022/02/16 06:14:25;;;;;;;1.92;0.73;;;;;15.20;99348.00;;;;5085880;28;20226;-79
2022/02/16 06:16:52;;;;;;;1.48;1.08;;;;;15.30;99344.00;;;;5073530;28;20219;-81
2022/02/16 06:19:19;;;;;;;1.00;0.90;;;;;15.30;99334.00;;;;5086666;28;20191;-80
2022/02/16 06:21:48;;;;;;;0.90;0.85;;;;;15.30;99353.00;;;;5071673;28;20199;-81
2022/02/16 06:24:15;;;;;;;1.58;0.93;;;;;15.30;99337.00;;;;5068268;28;20206;-81
2022/02/16 06:26:43;;;;;;;0.65;0.65;;;;;15.30;99335.00;;;;5068781;28;20195;-81
2022/02/16 06:29:10;;;;;;;1.10;0.80;;;;;15.30;99344.00;;;;5070373;28;20757;-80
2022/02/16 06:31:37;;;;;;;0.68;0.68;;;;;15.40;99328.00;;;;5083413;28;20203;-80
2022/02/16 06:34:05;;;;;;;1.10;0.80;;;;;15.40;99321.00;;;;5074846;28;20233;-80
2022/02/16 06:36:32;;;;;;;0.85;0.80;;;;;15.40;99324.00;;;;5069324;28;20542;-81
2022/02/16 06:39:00;;;;;;;0.68;0.68;;;;;15.40;99327.00;;;;5077811;28;20210;-82
2022/02/16 06:41:28;;;;;;;0.63;0.60;;;;;15.40;99343.00;;;;5084592;28;20206;-82
2022/02/16 06:43:55;;;;;;;1.02;0.93;;;;;15.40;99325.00;;;;5070503;28;20277;-80
2022/02/16 06:46:23;;;;;;;1.20;1.10;;;;;15.40;99327.00;;;;5077036;28;20672;-79
2022/02/16 06:48:50;;;;;;;0.70;0.70;;;;;15.40;99337.00;;;;5078792;28;20199;-79
2022/02/16 06:51:18;;;;;;;1.10;0.90;;;;;15.40;99330.00;;;;5075560;28;20207;-80
2022/02/16 06:53:45;;;;;;;0.93;0.90;;;;;15.40;99336.00;;;;5088104;28;20242;-80
2022/02/16 06:56:14;;;;;;;0.77;0.77;;;;;15.50;99337.00;;;;5082501;28;20202;-80
2022/02/16 06:58:41;;;;;;;0.80;0.80;;;;;15.50;99341.00;;;;5068906;28;20195;-81
2022/02/16 07:01:10;;;;;;;1.17;1.08;;;;;15.50;99340.00;;;;5076394;28;20194;-82
2022/02/16 07:03:37;;;;;;;0.82;0.73;;;;;15.50;99332.00;;;;5088457;28;20202;-81
2022/02/16 07:06:05;;;;;;;1.25;1.15;;;;;15.50;99333.00;;;;5079046;28;20190;-83
2022/02/16 07:08:32;;;;;;;1.05;0.95;;;;;15.50;99344.00;;;;5068928;28;20210;-80
2022/02/16 07:11:02;;;;;;;0.90;0.90;;;;;15.50;99347.00;;;;5068787;28;20199;-80
2022/02/16 07:13:30;;;;;;;0.93;0.80;;;;;15.50;99345.00;;;;5068637;28;20726;-80
2022/02/16 07:15:58;;;;;;;0.80;0.70;;;;;15.60;99345.00;;;;5068972;28;20230;-80
2022/02/16 07:18:27;;;;;;;1.05;0.95;;;;;15.60;99345.00;;;;5079399;28;20193;-80
2022/02/16 07:20:55;;;;;;;0.75;0.75;;;;;15.60;99346.00;;;;5089682;28;20233;-80
2022/02/16 07:23:22;;;;;;;1.60;1.25;;;;;15.60;99342.00;;;;5094964;28;20205;-80
2022/02/16 07:25:49;;;;;;;1.30;1.20;;;;;15.60;99336.00;;;;5086955;28;20198;-80
2022/02/16 07:28:17;;;;;;;1.52;0.98;;;;;15.70;99331.00;;;;5071666;28;20198;-81
2022/02/16 07:30:48;;;;;;;1.00;0.80;;;;;15.70;99333.00;;;;5067838;28;20594;-81
2022/02/16 07:33:16;;;;;;;3.05;1.15;;;;;15.70;99322.00;;;;5081834;28;20723;-79
2022/02/16 07:35:44;;;;;;;1.20;0.80;;;;;15.70;99325.00;;;;5086185;28;20193;-81
2022/02/16 07:38:11;;;;;;;1.23;1.13;;;;;15.70;99316.00;;;;5071572;28;20211;-81
2022/02/16 07:40:38;;;;;;;0.85;0.85;;;;;15.80;99313.00;;;;5072653;28;20226;-81
2022/02/16 07:43:05;;;;;;;1.10;1.00;;;;;15.80;99322.00;;;;5080110;28;20233;-80
2022/02/16 07:45:33;;;;;;;1.42;1.10;;;;;15.80;99315.00;;;;5076390;28;20198;-79
2022/02/16 07:48:02;;;;;;;1.60;1.27;;;;;15.80;99331.00;;;;5089764;28;20210;-80
2022/02/16 07:50:30;;;;;;;1.20;1.10;;;;;15.80;99325.00;;;;5072596;28;20272;-81
2022/02/16 07:53:01;;;;;;;1.08;0.98;;;;;15.90;99333.00;;;;5080114;28;20198;-81
2022/02/16 07:55:28;;;;;;;1.23;0.88;;;;;15.90;99345.00;;;;5090007;28;20222;-81
2022/02/16 07:58:01;;;;;;;0.80;0.75;;;;;15.90;99345.00;;;;5071981;28;20203;-80
2022/02/16 08:00:28;;;;;;;1.02;0.90;;;;;15.90;99344.00;;;;5072766;28;20342;-80
2022/02/16 08:02:56;;;;;;;1.20;1.05;;;;;15.90;99350.00;;;;5071687;28;20191;-80
2022/02/16 08:05:25;;;;;;;1.10;1.00;;;;;15.90;99359.00;;;;5077747;28;20199;-80
2022/02/16 08:07:54;;;;;;;0.55;0.43;;;;;16.00;99360.00;;;;5075534;28;21224;-79
2022/02/16 08:10:21;;;;;;;0.73;0.70;;;;;16.00;99367.00;;;;5071186;28;20277;-81
2022/02/16 08:12:52;;;;;;;1.30;0.98;;;;;16.00;99377.00;;;;5073608;28;20194;-81
2022/02/16 08:15:19;;;;;;;0.88;0.80;;;;;16.10;99377.00;;;;5083392;28;20309;-79
2022/02/16 08:17:46;;;;;;;1.00;0.80;;;;;16.10;99375.00;;;;5070990;28;20195;-82
2022/02/16 08:20:14;;;;;;;1.65;0.68;;;;;16.10;99389.00;;;;5071986;28;20256;-79
2022/02/16 08:22:43;;;;;;;1.63;0.70;;;;;16.10;99393.00;;;;5072435;28;20209;-79
2022/02/16 08:25:11;;;;;;;0.98;0.88;;;;;16.10;99398.00;;;;5077991;28;20209;-80
2022/02/16 08:27:41;;;;;;;0.70;0.70;;;;;16.10;99389.00;;;;5070308;28;20202;-79
2022/02/16 08:30:11;;;;;;;1.20;0.82;;;;;16.10;99398.00;;;;5085526;28;20195;-80
2022/02/16 08:32:38;;;;;;;1.02;0.90;;;;;16.20;99411.00;;;;5078662;28;20270;-80
2022/02/16 08:35:06;;;;;;;2.17;1.27;;;;;16.20;99395.00;;;;5094797;28;20233;-80
2022/02/16 08:37:35;;;;;;;1.50;1.25;;;;;16.20;99413.00;;;;5088235;28;20574;-81
2022/02/16 08:40:07;;;;;;;4.45;1.60;;;;;16.20;99389.00;;;;5085366;28;20305;-80
2022/02/16 08:42:34;;;;;;;2.42;2.08;;;;;16.20;99386.00;;;;5075441;28;20198;-80
2022/02/16 08:45:03;;;;;;;2.45;2.00;;;;;16.20;99385.00;;;;5083250;28;20398;-80
2022/02/16 08:47:30;;;;;;;3.25;2.60;;;;;16.30;99367.00;;;;5081252;28;20195;-80
2022/02/16 08:49:57;;;;;;;2.75;2.40;;;;;16.30;99374.00;;;;5086055;28;20198;-79
2022/02/16 08:52:25;;;;;;;3.90;2.63;;;;;16.30;99378.00;;;;5070456;28;20198;-80
2022/02/16 08:54:53;;;;;;;4.93;3.47;;;;;16.30;99389.00;;;;5071166;28;20305;-81
2022/02/16 08:57:24;;;;;;;4.80;3.80;;;;;16.30;99379.00;;;;5079268;28;20207;-81
2022/02/16 08:59:51;;;;;;;3.42;3.08;;;;;16.40;99383.00;;;;5073576;28;20217;-81
2022/02/16 09:02:19;;;;;;;4.47;3.10;;;;;16.40;99368.00;;;;5077897;28;20707;-80
2022/02/16 09:04:46;;;;;;;4.43;2.90;;;;;16.40;99379.00;;;;5069832;28;20241;-79
2022/02/16 09:07:28;;;;;;;3.67;2.80;;;;;16.50;99380.00;;;;5078504;28;20201;-81
2022/02/16 09:09:56;;;;;;;4.63;2.85;;;;;16.50;99388.00;;;;5080023;28;20664;-80
2022/02/16 09:12:25;;;;;;;3.65;2.40;;;;;16.50;99388.00;;;;5080072;28;20398;-81
2022/02/16 09:14:52;;;;;;;3.22;2.13;;;;;16.60;99398.00;;;;5069424;28;20230;-81
2022/02/16 09:17:21;;;;;;;4.15;2.30;;;;;16.60;99400.00;;;;5078193;28;20222;-79
2022/02/16 09:19:48;;;;;;;3.90;2.42;;;;;16.60;99408.00;;;;5083462;28;20205;-80
2022/02/16 09:22:16;;;;;;;5.45;1.60;;;;;16.70;99413.00;;;;5078508;28;20194;-81
2022/02/16 09:24:44;;;;;;;4.65;1.73;;;;;16.80;99409.00;;;;5074481;28;20198;-81
2022/02/16 09:27:13;;;;;;;4.80;1.77;;;;;16.80;99402.00;;;;5069098;28;20772;-79
2022/02/16 09:29:42;;;;;;;4.13;1.73;;;;;16.80;99411.00;;;;5066969;28;20718;-81
2022/02/16 09:32:10;;;;;;;2.45;0.93;;;;;16.90;99405.00;;;;5074034;28;20213;-81
2022/02/16 09:34:38;;;;;;;6.35;1.40;;;;;16.90;99394.00;;;;5089570;28;20313;-81
2022/02/16 09:37:06;;;;;;;3.63;1.10;;;;;17.00;99401.00;;;;5092726;28;20202;-81
2022/02/16 09:39:33;;;;;;;5.97;1.35;;;;;17.00;99398.00;;;;5102650;28;20217;-80
2022/02/16 09:42:01;;;;;;;3.85;1.10;;;;;17.10;99393.00;;;;5083785;28;20209;-80
2022/02/16 09:44:37;;;;;;;5.88;1.73;;;;;17.10;99394.00;;;;5081023;28;20190;-80
2022/02/16 09:47:08;;;;;;;4.43;1.55;;;;;17.20;99384.00;;;;5082759;28;20190;-82
2022/02/16 09:49:38;;;;;;;4.78;1.45;;;;;17.20;99392.00;;;;5077083;28;20684;-80
2022/02/16 09:52:07;;;;;;;3.80;1.25;;;;;17.30;99395.00;;;;5085319;28;20198;-80
2022/02/16 09:54:35;;;;;;;4.78;1.23;;;;;17.30;99404.00;;;;5108927;28;20308;-81
2022/02/16 09:57:02;;;;;;;6.07;1.65;;;;;17.40;99415.00;;;;5085780;28;20194;-81
2022/02/16 09:59:30;;;;;;;5.00;1.42;;;;;17.40;99408.00;;;;5083245;28;20222;-81
2022/02/16 10:01:59;;;;;;;6.30;1.48;;;;;17.40;99413.00;;;;5079040;28;20207;-80
2022/02/16 10:04:30;;;;;;;3.80;0.90;;;;;17.40;99404.00;;;;5075920;28;20678;-80
2022/02/16 10:06:58;;;;;;;10.35;1.65;;;;;17.50;99403.00;;;;5070273;28;20198;-80
2022/02/16 10:09:27;;;;;;;3.30;1.13;;;;;17.60;99402.00;;;;5071932;28;20194;-81
2022/02/16 10:11:56;;;;;;;5.47;1.40;;;;;17.60;99409.00;;;;5081743;28;20195;-80
2022/02/16 10:14:27;;;;;;;3.92;0.98;;;;;17.60;99418.00;;;;5076003;28;20218;-81
2022/02/16 10:16:54;;;;;;;4.93;1.35;;;;;17.70;99400.00;;;;5071389;28;20230;-81
2022/02/16 10:19:22;;;;;;;4.40;1.13;;;;;17.70;99380.00;;;;5088573;28;20205;-81
2022/02/16 10:22:06;;;;;;;4.78;1.40;;;;;17.70;99374.00;;;;5082395;28;20610;-81
2022/02/16 10:24:34;;;;;;;5.20;0.90;;;;;17.80;99374.00;;;;5073517;28;20236;-81
2022/02/16 10:27:02;;;;;;;6.13;1.20;;;;;17.80;99366.00;;;;5068470;28;20206;-82
2022/02/16 10:29:32;;;;;;;6.78;1.60;;;;;17.80;99369.00;;;;5068315;28;20281;-82
2022/02/16 10:32:00;;;;;;;5.20;1.13;;;;;17.90;99357.00;;;;5068724;28;20994;-82
2022/02/16 10:34:49;;;;;;;5.80;1.00;;;;;17.80;99363.00;;;;5069647;28;20219;-83
2022/02/16 10:37:20;;;;;;;3.60;1.13;;;;;17.90;99384.00;;;;5068546;28;20199;-82
2022/02/16 10:40:04;;;;;;;7.30;2.15;;;;;17.80;99366.00;;;;5080092;28;20264;-83
2022/02/16 10:42:31;;;;;;;4.50;1.17;;;;;17.90;99381.00;;;;5071718;28;20195;-81
2022/02/16 10:45:06;;;;;;;4.57;0.90;;;;;17.90;99368.00;;;;5067389;28;20199;-82
2022/02/16 10:47:52;;;;;;;5.28;2.00;;;;;17.80;99369.00;;;;5075909;28;20194;-80
2022/02/16 10:50:20;;;;;;;3.42;1.27;;;;;17.90;99363.00;;;;5074575;28;20574;-81
2022/02/16 10:52:55;;;;;;;4.90;0.95;;;;;17.90;99361.00;;;;5071317;28;20236;-82
2022/02/16 10:55:39;;;;;;;5.68;1.98;;;;;17.80;99358.00;;;;5075384;28;20636;-80
2022/02/16 10:58:08;;;;;;;6.18;1.50;;;;;17.90;99344.00;;;;5074501;28;20198;-80
2022/02/16 11:00:37;;;;;;;4.88;1.20;;;;;17.90;99352.00;;;;5069171;28;20218;-82
2022/02/16 11:03:06;;;;;;;5.22;1.80;;;;;17.90;99346.00;;;;5086813;28;20195;-79
2022/02/16 11:05:36;;;;;;;6.55;1.48;;;;;17.90;99351.00;;;;5089572;28;20194;-81
2022/02/16 11:08:06;;;;;;;5.10;0.90;;;;;17.90;99373.00;;;;5069836;28;20208;-81
2022/02/16 11:10:34;;;;;;;10.68;1.55;;;;;17.90;99380.00;;;;5069048;28;21015;-79
2022/02/16 11:13:04;;;;;;;5.80;2.25;;;;;17.90;99382.00;;;;5069656;28;20653;-80
2022/02/16 11:15:31;;;;;;;8.63;1.92;;;;;17.90;99383.00;;;;5068441;28;20233;-81
2022/02/16 11:18:12;;;;;;;4.78;1.45;;;;;17.80;99386.00;;;;5074763;28;20191;-81
2022/02/16 11:20:39;;;;;;;4.63;1.67;;;;;17.90;99403.00;;;;5081683;28;20190;-80
2022/02/16 11:23:08;;;;;;;6.40;1.80;;;;;17.90;99403.00;;;;5073713;28;20205;-81
2022/02/16 11:25:40;;;;;;;7.68;1.75;;;;;17.80;99400.00;;;;5073945;28;20206;-81
2022/02/16 11:28:12;;;;;;;6.32;1.23;;;;;17.80;99402.00;;;;5078963;28;20208;-79
2022/02/16 11:30:41;;;;;;;5.88;1.60;;;;;17.80;99417.00;;;;5075080;28;20206;-81
2022/02/16 11:33:19;;;;;;;4.85;1.48;;;;;17.70;99400.00;;;;5075935;28;20260;-83
2022/02/16 11:35:53;;;;;;;8.18;1.40;;;;;17.80;99401.00;;;;5076730;28;20806;-83
2022/02/16 11:38:24;;;;;;;7.82;1.52;;;;;17.80;99406.00;;;;5073681;28;20191;-82
2022/02/16 11:40:54;;;;;;;4.82;1.15;;;;;17.80;99395.00;;;;5075862;28;20728;-83
2022/02/16 11:43:24;;;;;;;5.65;1.33;;;;;17.80;99402.00;;;;5075441;28;20202;-80
2022/02/16 11:45:57;;;;;;;12.98;1.75;;;;;17.80;99405.00;;;;5070634;28;20211;-79
2022/02/16 11:48:48;;;;;;;6.72;1.73;;;;;17.70;99402.00;;;;5078557;28;20567;-81
2022/02/16 11:51:35;;;;;;;4.55;0.85;;;;;17.70;99406.00;;;;5067119;28;20199;-82
2022/02/16 11:54:46;;;;;;;9.20;1.67;;;;;17.60;99414.00;;;;5072078;28;20195;-83
2022/02/16 11:57:44;;;;;;;7.32;1.60;;;;;17.60;99419.00;;;;5073877;28;20202;-82
2022/02/16 12:00:28;;;;;;;5.18;1.42;;;;;17.60;99426.00;;;;5085344;28;20198;-81
2022/02/16 12:03:22;;;;;;;3.08;0.77;;;;;17.60;99409.00;;;;5069010;28;20704;-81
2022/02/16 12:06:07;;;;;;;6.88;1.40;;;;;17.70;99409.00;;;;5069666;28;20629;-83
2022/02/16 12:08:37;;;;;;;4.90;1.63;;;;;17.80;99411.00;;;;5072146;28;20238;-84
2022/02/16 12:11:23;;;;;;;7.00;1.80;;;;;17.70;99410.00;;;;5080010;28;20190;-82
2022/02/16 12:13:53;;;;;;;6.07;1.67;;;;;17.80;99418.00;;;;5084386;28;20202;-84
2022/02/16 12:16:23;;;;;;;4.95;1.50;;;;;17.80;99408.00;;;;5078792;28;20245;-83
2022/02/16 12:18:51;;;;;;;4.03;1.42;;;;;17.80;99420.00;;;;5074702;28;20202;-83
2022/02/16 12:21:26;;;;;;;7.57;1.50;;;;;17.80;99428.00;;;;5073450;28;20217;-83
2022/02/16 12:23:59;;;;;;;12.90;2.15;;;;;17.90;99446.00;;;;5085224;28;20573;-82